Terminal Aerodrome Forecast
Issued by NWS

Home | Current Version | Previous Version | Text Only | Print | Product List | Glossary On
Versions: 1 2 3 4 5 6 7 8 9 10 11 12 13 14 15 16
000
FTAK31 PAJN 260540
TAFAPG
TAF
PAPG 260540Z 2606/2706 00000KT P6SM VCSH SCT025 BKN035 OVC045
      TEMPO 2606/2610 5SM -SHRASN BKN015 OVC025
     FM261000 00000KT P6SM VCSH SCT015 BKN025 OVC100
     FM261400 00000KT P6SM SCT015 BKN050 OVC080
     FM262000 08007KT P6SM SCT050 BKN080 OVC100
     FM262300 06004KT P6SM VCSH OVC060
      AMD LTD TO CLD VIS AND WIND 2606/2615=

USA.gov is the U.S. government's official web portal to all federal, state and local government web resources and services.